Time;durP1;ratioP1;P1;durP2;ratioP2;P2;SDS_P1;SDS_P2;PMS_P1;PMS_P2;Temp;Humidity;BMP_temperature;BMP_pressure;BME280_temperature;BME280_humidity;BME280_pressure;Samples;Min_cycle;Max_cycle;Signal;HPM_P1;HPM_P2
2023/12/21 00:01:35;;;;;;;2.65;1.20;;;;;;;18.97;50.96;100649.00;5052140;27;98883;-79
2023/12/21 00:04:03;;;;;;;3.03;1.67;;;;;;;18.97;50.84;100652.59;5049918;27;98335;-79
2023/12/21 00:06:30;;;;;;;2.83;1.35;;;;;;;18.98;50.93;100645.28;5048442;27;96948;-79
2023/12/21 00:08:57;;;;;;;2.55;1.23;;;;;;;18.97;50.90;100636.25;5043428;27;97710;-79
2023/12/21 00:11:24;;;;;;;2.70;1.17;;;;;;;18.99;50.84;100623.31;5039905;27;97063;-79
2023/12/21 00:13:51;;;;;;;1.90;1.30;;;;;;;18.99;50.94;100606.16;5054214;27;96736;-79
2023/12/21 00:16:18;;;;;;;1.92;1.13;;;;;;;18.99;51.24;100601.56;5019097;27;97081;-79
2023/12/21 00:18:44;;;;;;;1.83;0.93;;;;;;;18.99;51.12;100604.28;5046306;27;97070;-79
2023/12/21 00:21:11;;;;;;;3.88;1.48;;;;;;;18.99;50.99;100598.84;5053503;27;96903;-79
2023/12/21 00:23:38;;;;;;;2.03;1.13;;;;;;;18.99;51.24;100597.97;5054499;27;96743;-79
2023/12/21 00:26:04;;;;;;;3.85;1.27;;;;;;;18.99;51.05;100593.38;5053676;27;96876;-79
2023/12/21 00:28:31;;;;;;;2.45;1.10;;;;;;;18.99;51.18;100596.13;5037528;27;96753;-79
2023/12/21 00:30:58;;;;;;;4.85;1.30;;;;;;;18.98;51.24;100586.25;5039716;27;96888;-79
2023/12/21 00:33:25;;;;;;;2.30;1.60;;;;;;;18.99;51.18;100582.50;5060735;27;97167;-79
2023/12/21 00:35:51;;;;;;;3.05;1.55;;;;;;;18.99;51.17;100581.66;5040122;27;96842;-79
2023/12/21 00:38:18;;;;;;;2.40;1.27;;;;;;;18.99;50.85;100573.50;5053026;27;96790;-79
2023/12/21 00:40:45;;;;;;;2.90;1.20;;;;;;;19.00;51.18;100573.31;5039131;27;99215;-79
2023/12/21 00:43:11;;;;;;;2.75;1.40;;;;;;;19.00;51.04;100577.91;5056113;27;98690;-79
2023/12/21 00:45:38;;;;;;;1.70;0.98;;;;;;;19.00;51.05;100567.03;5034236;27;97978;-79
2023/12/21 00:48:05;;;;;;;2.90;1.10;;;;;;;19.01;50.86;100558.69;5033869;27;97869;-79
2023/12/21 00:50:32;;;;;;;2.45;1.17;;;;;;;19.00;50.99;100548.81;5050755;27;99721;-79
2023/12/21 00:52:59;;;;;;;2.58;1.35;;;;;;;18.99;50.97;100540.84;5033792;27;96813;-79
2023/12/21 00:55:25;;;;;;;2.78;1.10;;;;;;;19.02;51.09;100549.50;5033667;27;97815;-79
2023/12/21 00:57:52;;;;;;;1.92;1.20;;;;;;;19.00;51.26;100540.66;5034598;27;96768;-79
2023/12/21 01:00:19;;;;;;;1.67;1.20;;;;;;;19.00;51.36;100534.38;5033579;27;98202;-79
2023/12/21 01:02:45;;;;;;;2.85;1.10;;;;;;;19.00;51.09;100529.78;5016490;27;97967;-79
2023/12/21 01:05:12;;;;;;;2.10;1.38;;;;;;;19.03;51.48;100531.31;5019117;27;97119;-79
2023/12/21 01:07:38;;;;;;;2.58;1.42;;;;;;;19.01;51.28;100523.31;5050728;27;96646;-79
2023/12/21 01:10:06;;;;;;;2.97;1.25;;;;;;;19.02;51.27;100516.84;5053101;27;97109;-79
2023/12/21 01:12:33;;;;;;;3.47;1.38;;;;;;;19.02;51.19;100513.28;5034035;27;96911;-79
2023/12/21 01:15:01;;;;;;;1.98;0.90;;;;;;;19.03;51.09;100507.66;5052839;27;96028;-79
2023/12/21 01:17:28;;;;;;;2.55;1.10;;;;;;;19.04;51.15;100500.34;5042678;27;96927;-79
2023/12/21 01:19:55;;;;;;;1.70;1.10;;;;;;;19.03;51.14;100487.75;5041852;27;98483;-79
2023/12/21 01:22:22;;;;;;;1.90;0.90;;;;;;;19.04;51.42;100487.59;5055887;27;97171;-79
2023/12/21 01:24:49;;;;;;;5.05;1.30;;;;;;;19.05;51.17;100496.59;5052828;27;96617;-79
2023/12/21 01:27:16;;;;;;;1.98;1.25;;;;;;;19.05;51.27;100494.72;5033070;27;96888;-79
2023/12/21 01:29:57;;;;;;;3.35;1.05;;;;;;;19.05;51.26;100493.88;5068083;27;96630;-79
2023/12/21 01:32:24;;;;;;;2.40;1.00;;;;;;;19.06;50.99;100492.84;5038924;27;96799;-79
2023/12/21 01:34:51;;;;;;;1.40;0.90;;;;;;;19.05;51.03;100486.56;5055292;27;96811;-79
2023/12/21 01:37:18;;;;;;;2.33;1.00;;;;;;;19.08;50.96;100476.34;5036452;27;96732;-79
2023/12/21 01:39:44;;;;;;;2.60;1.23;;;;;;;19.07;51.02;100480.09;5050025;27;96638;-79
2023/12/21 01:42:11;;;;;;;1.95;0.98;;;;;;;19.08;51.18;100470.91;5034911;27;97649;-79
2023/12/21 01:44:38;;;;;;;2.10;1.13;;;;;;;19.06;50.93;100471.09;5055895;27;96650;-79
2023/12/21 01:47:05;;;;;;;2.85;0.90;;;;;;;19.07;51.09;100472.78;5068097;27;98203;-79
2023/12/21 01:49:32;;;;;;;1.90;1.02;;;;;;;19.07;51.41;100477.38;5054677;27;96753;-79
2023/12/21 01:51:59;;;;;;;2.10;1.00;;;;;;;19.08;51.25;100468.19;5050117;27;97440;-79
2023/12/21 01:54:27;;;;;;;3.95;1.00;;;;;;;19.07;51.35;100459.16;5043430;27;96697;-79
2023/12/21 01:56:53;;;;;;;1.65;0.90;;;;;;;19.08;51.35;100443.69;5055760;27;97286;-79
2023/12/21 01:59:20;;;;;;;3.03;1.05;;;;;;;19.09;51.08;100450.84;5060209;27;96694;-79
2023/12/21 02:01:47;;;;;;;2.67;1.20;;;;;;;19.09;51.17;100448.09;5034358;27;96724;-79
2023/12/21 02:04:14;;;;;;;1.98;0.85;;;;;;;19.08;51.18;100449.97;5055832;27;96713;-79
2023/12/21 02:06:41;;;;;;;2.25;1.17;;;;;;;19.09;51.36;100448.09;5030281;27;96730;-79
2023/12/21 02:09:08;;;;;;;1.92;1.10;;;;;;;19.10;51.07;100460.69;5066780;27;97872;-79
2023/12/21 02:11:35;;;;;;;1.75;1.00;;;;;;;19.09;51.24;100459.84;5049618;27;97139;-79
2023/12/21 02:14:03;;;;;;;2.38;0.90;;;;;;;19.11;51.06;100470.56;5038210;27;96665;-79
2023/12/21 02:16:49;;;;;;;2.47;0.95;;;;;;;19.10;51.04;100460.69;5034861;27;97309;-79
2023/12/21 02:19:17;;;;;;;2.20;1.00;;;;;;;19.10;51.18;100460.69;5035026;27;97288;-79
2023/12/21 02:21:46;;;;;;;1.35;0.82;;;;;;;19.09;51.05;100439.94;5034665;27;96687;-79
2023/12/21 02:24:17;;;;;;;1.73;0.90;;;;;;;19.08;51.24;100430.94;5050862;27;97001;-79
2023/12/21 02:26:44;;;;;;;3.08;1.10;;;;;;;19.09;50.98;100429.06;5033295;27;96956;-79
2023/12/21 02:29:11;;;;;;;2.70;1.00;;;;;;;19.11;50.92;100429.72;5052059;27;97166;-79
2023/12/21 02:31:38;;;;;;;1.17;0.68;;;;;;;19.11;51.12;100416.13;5025919;27;99844;-79
2023/12/21 02:34:06;;;;;;;2.30;0.88;;;;;;;19.11;51.32;100410.69;5053442;27;97127;-79
2023/12/21 02:36:33;;;;;;;1.10;0.85;;;;;;;19.11;51.04;100411.53;5051590;27;97164;-79
2023/12/21 02:39:01;;;;;;;1.60;0.90;;;;;;;19.11;51.19;100407.97;5037203;27;98144;-79
2023/12/21 02:41:27;;;;;;;1.70;0.82;;;;;;;19.10;51.24;100387.22;5051681;27;97164;-79
2023/12/21 02:43:54;;;;;;;1.63;0.80;;;;;;;19.13;51.15;100384.13;5035469;27;97180;-79
2023/12/21 02:46:25;;;;;;;1.95;1.00;;;;;;;19.13;51.14;100375.97;5067959;27;97118;-79
2023/12/21 02:48:52;;;;;;;2.25;1.00;;;;;;;19.13;50.87;100386.84;5038453;27;98043;-79
2023/12/21 02:51:19;;;;;;;3.13;1.10;;;;;;;19.13;51.34;100375.97;5049439;27;97190;-79
2023/12/21 02:53:45;;;;;;;1.50;0.80;;;;;;;19.13;51.01;100384.97;5053371;27;97002;-79
2023/12/21 02:56:12;;;;;;;1.92;1.00;;;;;;;19.13;51.35;100378.69;5042879;27;96710;-79
2023/12/21 02:58:40;;;;;;;1.85;0.77;;;;;;;19.13;50.95;100367.81;5027191;27;97938;-79
2023/12/21 03:01:06;;;;;;;1.67;0.90;;;;;;;19.14;51.08;100380.38;5041558;27;97185;-79
2023/12/21 03:03:33;;;;;;;1.45;0.90;;;;;;;19.14;51.20;100378.50;5061182;27;96701;-79
2023/12/21 03:06:00;;;;;;;2.28;0.77;;;;;;;19.15;51.15;100373.91;5054181;27;97840;-79
2023/12/21 03:08:27;;;;;;;1.70;1.17;;;;;;;19.13;51.09;100365.09;5058001;27;96871;-79
2023/12/21 03:10:53;;;;;;;1.20;0.82;;;;;;;19.14;50.79;100361.34;5045535;27;97585;-79
2023/12/21 03:13:20;;;;;;;3.00;0.98;;;;;;;19.14;51.11;100345.00;5042584;27;96756;-79
2023/12/21 03:15:47;;;;;;;1.60;1.00;;;;;;;19.12;51.21;100331.56;5069110;27;96858;-79
2023/12/21 03:18:13;;;;;;;2.00;0.80;;;;;;;19.12;51.14;100325.28;5071111;27;96874;-79
2023/12/21 03:20:40;;;;;;;1.65;1.00;;;;;;;19.12;51.04;100308.94;5069501;27;97326;-79
2023/12/21 03:23:07;;;;;;;2.38;0.95;;;;;;;19.13;51.07;100297.03;5051986;27;96806;-79
2023/12/21 03:25:33;;;;;;;1.15;0.82;;;;;;;19.12;51.14;100287.16;5070471;27;96487;-79
2023/12/21 03:28:00;;;;;;;1.23;0.70;;;;;;;19.14;50.85;100276.94;5034806;27;96826;-79
2023/12/21 03:30:27;;;;;;;2.20;0.90;;;;;;;19.14;51.20;100263.34;5048579;27;98778;-79
2023/12/21 03:32:54;;;;;;;1.75;0.90;;;;;;;19.14;51.07;100268.78;5045628;27;96814;-79
2023/12/21 03:35:20;;;;;;;1.30;0.80;;;;;;;19.14;50.70;100257.91;5039762;27;96855;-79
2023/12/21 03:37:47;;;;;;;1.88;0.80;;;;;;;19.13;51.00;100262.50;5068849;27;96688;-79
2023/12/21 03:40:14;;;;;;;1.15;0.60;;;;;;;19.15;51.02;100265.03;5048875;27;97540;-79
2023/12/21 03:42:40;;;;;;;1.77;1.00;;;;;;;19.14;51.13;100257.91;5035810;27;97488;-79
2023/12/21 03:45:07;;;;;;;2.13;0.80;;;;;;;19.16;51.08;100250.41;5069353;27;96718;-79
2023/12/21 03:47:34;;;;;;;2.35;0.90;;;;;;;19.14;50.91;100231.53;5042156;27;97942;-79
2023/12/21 03:50:01;;;;;;;1.23;0.50;;;;;;;19.15;51.27;100222.34;5044087;27;96857;-79
2023/12/21 03:52:28;;;;;;;1.80;0.93;;;;;;;19.14;51.07;100234.25;5060214;27;96667;-79
2023/12/21 03:54:54;;;;;;;1.33;0.60;;;;;;;19.15;51.07;100229.66;5051960;27;96582;-79
2023/12/21 03:57:21;;;;;;;1.00;0.70;;;;;;;19.15;50.74;100229.66;5051483;27;96730;-79
2023/12/21 03:59:48;;;;;;;2.03;0.73;;;;;;;19.15;51.20;100232.38;5034972;27;99610;-79
2023/12/21 04:02:14;;;;;;;1.27;0.80;;;;;;;19.15;50.89;100224.22;5033249;27;97102;-79
2023/12/21 04:04:41;;;;;;;0.85;0.60;;;;;;;19.14;50.80;100217.91;5031875;27;97039;-79
2023/12/21 04:07:08;;;;;;;2.17;0.95;;;;;;;19.15;50.82;100221.47;5069268;27;96740;-79
2023/12/21 04:09:35;;;;;;;1.52;0.68;;;;;;;19.15;50.67;100221.47;5063941;27;97889;-79
2023/12/21 04:12:02;;;;;;;1.40;0.73;;;;;;;19.15;50.83;100216.88;5057642;27;96795;-79
2023/12/21 04:14:28;;;;;;;1.52;0.80;;;;;;;19.15;50.64;100216.88;5068187;27;97200;-79
2023/12/21 04:16:55;;;;;;;2.67;0.70;;;;;;;19.15;50.83;100197.84;5047525;27;97029;-79
2023/12/21 04:19:22;;;;;;;1.45;0.88;;;;;;;19.16;50.68;100195.97;5073213;27;96671;-79
2023/12/21 04:21:49;;;;;;;1.80;0.88;;;;;;;19.16;50.66;100185.91;5031113;27;97197;-79
2023/12/21 04:24:15;;;;;;;1.42;0.90;;;;;;;19.17;50.94;100170.44;5035382;27;96500;-79
2023/12/21 04:26:42;;;;;;;0.90;0.63;;;;;;;19.17;50.83;100181.31;5031487;27;98257;-79
2023/12/21 04:29:09;;;;;;;2.10;0.75;;;;;;;19.15;51.15;100170.63;5042773;27;97274;-79
2023/12/21 04:31:37;;;;;;;2.53;1.05;;;;;;;19.16;50.66;100166.03;5049435;27;96688;-79
2023/12/21 04:34:05;;;;;;;1.45;0.60;;;;;;;19.15;50.94;100150.72;5033740;27;96869;-78
2023/12/21 04:36:32;;;;;;;1.80;0.65;;;;;;;19.16;51.00;100145.09;5031148;27;100853;-79
2023/12/21 04:38:58;;;;;;;1.85;0.80;;;;;;;19.16;50.76;100117.03;5051115;27;97305;-79
2023/12/21 04:41:25;;;;;;;1.75;0.85;;;;;;;19.16;51.11;100112.44;5026986;27;98079;-79
2023/12/21 04:43:52;;;;;;;1.80;0.93;;;;;;;19.17;50.90;100118.72;5044242;27;98988;-79
2023/12/21 04:46:19;;;;;;;1.85;0.82;;;;;;;19.17;50.68;100124.16;5048486;27;97001;-79
2023/12/21 04:48:46;;;;;;;1.83;0.80;;;;;;;19.18;50.93;100121.25;5048064;27;97678;-79
2023/12/21 04:51:16;;;;;;;2.70;0.82;;;;;;;19.16;50.62;100098.81;5036680;27;99000;-79
2023/12/21 04:53:44;;;;;;;1.50;0.60;;;;;;;19.16;50.92;100093.38;5037853;27;96782;-79
2023/12/21 04:56:10;;;;;;;2.60;0.90;;;;;;;19.16;50.75;100084.34;5049969;27;97665;-79
2023/12/21 04:58:38;;;;;;;1.27;0.77;;;;;;;19.15;50.74;100072.63;5044427;27;98866;-79
2023/12/21 05:01:06;;;;;;;0.95;0.70;;;;;;;19.18;50.67;100066.81;5035615;27;97759;-79
2023/12/21 05:03:33;;;;;;;1.45;0.85;;;;;;;19.16;51.00;100051.69;5035380;27;96657;-79
2023/12/21 05:06:01;;;;;;;1.30;0.50;;;;;;;19.18;50.78;100044.19;5057660;27;98919;-79
2023/12/21 05:08:28;;;;;;;2.28;0.80;;;;;;;19.17;50.76;100045.22;5060104;27;97669;-79
2023/12/21 05:10:55;;;;;;;2.15;0.80;;;;;;;19.17;50.80;100054.22;5053237;27;96851;-79
2023/12/21 05:13:21;;;;;;;1.83;0.80;;;;;;;19.19;50.57;100063.06;5057594;27;97027;-79
2023/12/21 05:15:48;;;;;;;2.00;0.70;;;;;;;19.19;50.60;100062.22;5037673;27;96913;-79
2023/12/21 05:18:15;;;;;;;1.80;0.90;;;;;;;19.19;50.85;100060.34;5045570;27;96812;-79
2023/12/21 05:20:42;;;;;;;2.60;0.80;;;;;;;19.18;50.45;100038.75;5073179;27;96662;-79
2023/12/21 05:23:08;;;;;;;2.55;0.93;;;;;;;19.19;50.59;100044.00;5055545;27;97868;-79
2023/12/21 05:25:35;;;;;;;0.90;0.55;;;;;;;19.17;50.76;100053.38;5037617;27;100146;-79
2023/12/21 05:28:02;;;;;;;1.38;0.77;;;;;;;19.19;50.84;100044.00;5046748;27;97321;-79
2023/12/21 05:30:29;;;;;;;2.08;0.93;;;;;;;19.19;50.73;100044.00;5048585;27;96698;-79
2023/12/21 05:32:55;;;;;;;1.90;0.85;;;;;;;19.20;50.48;100042.13;5038511;27;96733;-79
2023/12/21 05:35:22;;;;;;;1.63;0.73;;;;;;;19.19;50.71;100032.28;5037074;27;96693;-79
2023/12/21 05:37:49;;;;;;;1.48;0.80;;;;;;;19.20;50.45;100042.13;5037820;27;96849;-79
2023/12/21 05:40:16;;;;;;;1.55;0.68;;;;;;;19.20;50.47;100017.63;5073258;27;96918;-79
2023/12/21 05:42:42;;;;;;;2.00;1.00;;;;;;;19.20;50.71;100023.94;5038961;27;96678;-79
2023/12/21 05:45:09;;;;;;;1.30;0.65;;;;;;;19.20;50.47;100020.34;5037811;27;99043;-79
2023/12/21 05:47:36;;;;;;;1.60;0.77;;;;;;;19.20;50.68;100014.91;5050253;27;96878;-79
2023/12/21 05:50:03;;;;;;;2.13;0.82;;;;;;;19.20;50.73;100023.94;5045016;27;96564;-79
2023/12/21 05:52:30;;;;;;;2.28;0.77;;;;;;;19.22;50.45;100031.91;5036913;27;97637;-79
2023/12/21 05:54:57;;;;;;;2.10;0.70;;;;;;;19.20;50.83;100028.53;5035188;27;98398;-79
2023/12/21 05:57:25;;;;;;;2.60;0.90;;;;;;;19.22;50.36;100026.47;5030329;27;98005;-79
2023/12/21 05:59:52;;;;;;;1.52;0.70;;;;;;;19.20;50.73;100018.47;5056973;27;96625;-79
2023/12/21 06:02:19;;;;;;;1.85;0.70;;;;;;;19.21;50.51;100030.22;5033748;27;97086;-79
2023/12/21 06:04:45;;;;;;;1.98;0.70;;;;;;;19.21;50.48;100019.31;5049681;27;98957;-79
2023/12/21 06:07:12;;;;;;;1.70;0.75;;;;;;;19.20;50.60;100010.31;5035719;27;97310;-79
2023/12/21 06:09:39;;;;;;;1.65;0.80;;;;;;;19.22;50.69;100010.13;5073237;27;96578;-79
2023/12/21 06:12:06;;;;;;;1.92;0.80;;;;;;;19.23;50.37;99998.22;5042442;27;96762;-78
2023/12/21 06:14:33;;;;;;;2.00;0.70;;;;;;;19.22;50.43;99988.34;5052025;27;99043;-79
2023/12/21 06:17:03;;;;;;;1.73;0.70;;;;;;;19.21;50.61;100001.13;5042556;27;96812;-78
2023/12/21 06:19:29;;;;;;;2.33;0.80;;;;;;;19.23;50.55;99988.16;5044378;27;97197;-79
2023/12/21 06:21:56;;;;;;;2.47;1.05;;;;;;;19.23;50.33;99981.88;5048476;27;96662;-79
2023/12/21 06:24:23;;;;;;;3.50;1.00;;;;;;;19.23;50.32;99977.28;5053842;27;99913;-79
2023/12/21 06:26:49;;;;;;;1.75;0.80;;;;;;;19.23;50.42;99980.00;5042719;27;96729;-79
2023/12/21 06:29:16;;;;;;;2.55;1.00;;;;;;;19.22;50.53;99964.69;5046909;27;96810;-79
2023/12/21 06:31:43;;;;;;;2.33;1.10;;;;;;;19.22;50.67;99961.97;5034554;27;96895;-79
2023/12/21 06:34:09;;;;;;;1.70;0.73;;;;;;;19.23;50.31;99971.00;5052767;27;99075;-79
2023/12/21 06:36:36;;;;;;;2.10;0.77;;;;;;;19.23;50.44;99960.94;5043540;27;97872;-79
2023/12/21 06:39:03;;;;;;;1.83;0.93;;;;;;;19.22;50.65;99945.66;5067316;27;97269;-79
2023/12/21 06:41:30;;;;;;;1.65;0.85;;;;;;;19.24;50.19;99950.91;5042576;27;96856;-79
2023/12/21 06:43:56;;;;;;;2.03;0.77;;;;;;;19.23;50.43;99971.84;5048143;27;96613;-79
2023/12/21 06:46:24;;;;;;;2.47;1.05;;;;;;;19.24;50.44;99975.41;5072437;27;96662;-79
2023/12/21 06:48:50;;;;;;;2.22;0.95;;;;;;;19.24;50.38;99965.34;5047808;27;96643;-79
2023/12/21 06:51:17;;;;;;;2.75;0.90;;;;;;;19.22;50.50;99956.53;5051324;27;97158;-79
2023/12/21 06:53:44;;;;;;;2.72;0.70;;;;;;;19.23;50.22;99941.03;5055107;27;96895;-79
2023/12/21 06:56:10;;;;;;;1.58;0.82;;;;;;;19.25;50.39;99938.97;5052423;27;96827;-79
2023/12/21 06:58:57;;;;;;;1.67;0.70;;;;;;;19.25;50.18;99938.97;5046010;27;96570;-78
2023/12/21 07:01:27;;;;;;;2.00;0.70;;;;;;;19.22;50.44;99934.75;5038863;27;96644;-79
2023/12/21 07:03:55;;;;;;;1.80;0.80;;;;;;;19.25;50.24;99930.81;5034033;27;96916;-79
2023/12/21 07:06:21;;;;;;;3.72;0.80;;;;;;;19.25;50.08;99915.31;5049330;27;96760;-79
2023/12/21 07:08:48;;;;;;;2.08;0.93;;;;;;;19.25;50.29;99898.16;5050109;27;96645;-79
2023/12/21 07:11:17;;;;;;;1.50;0.80;;;;;;;19.24;50.17;99893.72;5035437;27;96666;-79
2023/12/21 07:13:44;;;;;;;1.00;0.70;;;;;;;19.23;50.36;99879.28;5035898;27;96655;-79
2023/12/21 07:16:11;;;;;;;2.53;1.00;;;;;;;19.24;50.23;99875.53;5047397;27;98132;-78
2023/12/21 07:18:38;;;;;;;3.63;1.10;;;;;;;19.25;50.55;99882.66;5028221;27;96781;-79
2023/12/21 07:21:05;;;;;;;1.20;0.70;;;;;;;19.24;50.33;99871.97;5030816;27;96675;-78
2023/12/21 07:23:32;;;;;;;1.70;0.80;;;;;;;19.25;50.34;99862.75;5053919;27;98087;-79
2023/12/21 07:25:59;;;;;;;3.33;0.80;;;;;;;19.27;50.40;99863.41;5019126;27;97097;-79
2023/12/21 07:28:28;;;;;;;2.35;0.90;;;;;;;19.25;50.13;99855.44;5027595;27;96708;-79
2023/12/21 07:30:55;;;;;;;3.08;0.80;;;;;;;19.26;50.48;99839.94;5049619;27;96841;-78
2023/12/21 07:33:22;;;;;;;1.10;0.75;;;;;;;19.24;50.46;99842.88;5030407;27;96915;-79
2023/12/21 07:35:49;;;;;;;2.85;0.80;;;;;;;19.25;50.41;99832.81;5033103;27;97532;-78
2023/12/21 07:38:16;;;;;;;1.38;0.73;;;;;;;19.25;50.47;99835.53;5046893;27;97962;-78
2023/12/21 07:40:43;;;;;;;2.15;0.90;;;;;;;19.23;50.43;99827.56;5047771;27;96818;-78
2023/12/21 07:43:10;;;;;;;2.70;0.70;;;;;;;19.23;50.24;99821.28;5053936;27;97011;-78
2023/12/21 07:45:37;;;;;;;1.75;0.80;;;;;;;19.22;50.43;99825.03;5067317;27;97036;-78
2023/12/21 07:48:04;;;;;;;2.28;0.60;;;;;;;19.22;50.21;99825.03;5033414;27;96855;-78
2023/12/21 07:50:31;;;;;;;1.65;0.77;;;;;;;19.24;50.09;99825.69;5063357;27;96900;-78
2023/12/21 07:52:58;;;;;;;1.20;0.65;;;;;;;19.22;50.51;99827.75;5051599;27;98048;-78
2023/12/21 07:55:25;;;;;;;1.25;0.70;;;;;;;19.20;50.05;99808.88;5039514;27;97797;-78
2023/12/21 07:57:52;;;;;;;1.42;0.70;;;;;;;19.20;50.07;99814.34;5046545;27;98111;-78
2023/12/21 08:00:19;;;;;;;1.95;0.75;;;;;;;19.21;50.35;99807.00;5040842;27;97423;-78
2023/12/21 08:02:45;;;;;;;1.20;0.60;;;;;;;19.21;50.32;99804.28;5021576;27;97340;-78
2023/12/21 08:05:13;;;;;;;2.28;1.02;;;;;;;19.20;50.22;99800.72;5051840;27;98160;-78
2023/12/21 08:07:40;;;;;;;2.58;0.70;;;;;;;19.19;50.48;99790.03;5039654;27;96762;-78
2023/12/21 08:10:08;;;;;;;2.03;0.70;;;;;;;19.17;50.23;99789.38;5048180;27;98314;-78
2023/12/21 08:12:35;;;;;;;1.50;0.80;;;;;;;19.17;50.31;99789.38;5049124;27;96572;-78
2023/12/21 08:15:03;;;;;;;2.45;0.70;;;;;;;19.16;50.50;99793.13;5038472;27;99819;-78
2023/12/21 08:17:31;;;;;;;2.30;0.50;;;;;;;19.15;50.23;99786.84;5043053;27;96796;-78
2023/12/21 08:19:58;;;;;;;1.55;0.70;;;;;;;19.15;50.44;99786.00;5043042;27;97094;-78
2023/12/21 08:22:25;;;;;;;1.52;0.80;;;;;;;19.14;50.52;99782.44;5051473;27;97364;-78
2023/12/21 08:24:51;;;;;;;1.80;0.73;;;;;;;19.18;50.27;99770.13;5020587;27;98847;-78
2023/12/21 08:27:19;;;;;;;1.20;0.73;;;;;;;19.16;50.23;99764.03;5053728;27;96736;-78
2023/12/21 08:29:46;;;;;;;3.10;0.93;;;;;;;19.16;50.44;99761.31;5025801;27;96616;-78
2023/12/21 08:32:16;;;;;;;1.88;0.90;;;;;;;19.15;50.38;99761.50;5046930;27;96871;-78
2023/12/21 08:34:42;;;;;;;1.45;0.70;;;;;;;19.14;50.42;99776.16;5032165;27;96897;-78
2023/12/21 08:37:12;;;;;;;1.75;0.82;;;;;;;19.16;50.50;99774.06;5042260;27;96753;-78
2023/12/21 08:39:39;;;;;;;1.05;0.63;;;;;;;19.15;50.48;99778.69;5040828;27;96707;-78
2023/12/21 08:42:08;;;;;;;1.52;0.75;;;;;;;19.14;50.28;99757.94;5047529;27;97344;-78
2023/12/21 08:44:36;;;;;;;1.75;0.85;;;;;;;19.15;50.40;99762.34;5049077;27;98018;-79
2023/12/21 08:47:02;;;;;;;2.63;0.60;;;;;;;19.15;50.48;99756.06;5051453;27;96762;-79
2023/12/21 08:49:29;;;;;;;2.00;1.00;;;;;;;19.15;50.18;99740.56;5029886;27;96860;-79
2023/12/21 08:51:56;;;;;;;1.45;0.80;;;;;;;19.15;50.16;99731.56;5061289;27;96994;-79
2023/12/21 08:54:23;;;;;;;2.25;0.60;;;;;;;19.15;50.09;99728.84;5050010;27;97046;-78
2023/12/21 08:56:50;;;;;;;1.98;0.80;;;;;;;19.14;50.45;99730.72;5065033;27;97106;-79
2023/12/21 08:59:18;;;;;;;1.27;0.55;;;;;;;19.13;50.10;99709.97;5069340;27;97147;-81
2023/12/21 09:01:45;;;;;;;1.92;0.63;;;;;;;19.14;50.31;99725.28;5033615;27;97735;-78
2023/12/21 09:04:12;;;;;;;1.95;0.80;;;;;;;19.14;50.42;99721.72;5030096;27;96814;-78
2023/12/21 09:06:39;;;;;;;2.53;1.00;;;;;;;19.15;50.28;99726.13;5048553;27;97349;-78
2023/12/21 09:09:05;;;;;;;2.10;0.73;;;;;;;19.16;50.53;99717.75;5024170;27;97403;-78
2023/12/21 09:11:32;;;;;;;1.75;0.70;;;;;;;19.15;50.43;99715.22;5044430;27;98377;-78
2023/12/21 09:13:59;;;;;;;1.63;0.57;;;;;;;19.16;50.34;99709.59;5048895;27;97583;-78
2023/12/21 09:16:25;;;;;;;2.30;0.68;;;;;;;19.16;50.23;99701.44;5048078;27;96765;-78
2023/12/21 09:18:52;;;;;;;2.67;1.13;;;;;;;19.14;50.38;99703.50;5055697;27;97298;-78
2023/12/21 09:21:19;;;;;;;1.73;0.63;;;;;;;19.15;50.76;99698.91;5054806;27;98673;-78
2023/12/21 09:23:46;;;;;;;1.60;0.60;;;;;;;19.15;50.64;99698.91;5058761;27;97902;-78
2023/12/21 09:26:13;;;;;;;1.65;0.65;;;;;;;19.14;50.42;99699.94;5053860;27;96651;-78
2023/12/21 09:28:41;;;;;;;1.90;1.38;;;;;;;19.16;50.67;99686.97;5044319;27;96896;-78
2023/12/21 09:31:08;;;;;;;1.00;0.70;;;;;;;19.15;50.64;99686.13;5059248;27;96713;-78
2023/12/21 09:33:40;;;;;;;1.90;0.75;;;;;;;19.17;50.63;99675.06;5065552;27;96689;-77
2023/12/21 09:36:09;;;;;;;2.55;0.70;;;;;;;19.16;50.77;99674.22;5047747;27;96877;-78
2023/12/21 09:38:36;;;;;;;1.27;0.57;;;;;;;19.15;50.53;99658.91;5070766;27;96897;-78
2023/12/21 09:41:02;;;;;;;2.40;0.82;;;;;;;19.16;50.63;99665.22;5053034;27;96986;-77
2023/12/21 09:43:31;;;;;;;1.90;0.57;;;;;;;19.15;50.46;99669.81;5065289;27;96830;-78
2023/12/21 09:45:58;;;;;;;1.50;0.50;;;;;;;19.16;50.51;99676.09;5053093;27;96453;-78
2023/12/21 09:48:26;;;;;;;1.63;0.80;;;;;;;19.16;50.42;99657.03;5053560;27;96736;-78
2023/12/21 09:50:55;;;;;;;1.60;0.70;;;;;;;19.16;50.49;99663.31;5048326;27;96822;-78
2023/12/21 09:53:25;;;;;;;1.00;0.60;;;;;;;19.17;50.39;99662.28;5051983;27;98521;-77
2023/12/21 09:56:01;;;;;;;1.95;0.63;;;;;;;19.17;50.30;99653.28;5044597;27;96873;-78
2023/12/21 09:58:31;;;;;;;1.55;0.70;;;;;;;19.17;50.80;99659.56;5036831;27;96719;-78
2023/12/21 10:00:58;;;;;;;1.20;0.60;;;;;;;19.17;50.23;99665.00;5070363;27;96735;-78
2023/12/21 10:03:24;;;;;;;1.35;0.60;;;;;;;19.17;50.46;99642.41;5035871;27;97745;-78
2023/12/21 10:05:52;;;;;;;1.13;0.45;;;;;;;19.17;50.67;99636.94;5052815;27;97397;-78
2023/12/21 10:08:20;;;;;;;1.67;0.80;;;;;;;19.19;50.44;99662.09;5037130;27;96899;-78
2023/12/21 10:10:46;;;;;;;3.00;0.82;;;;;;;19.16;50.67;99657.88;5036154;27;96816;-78
2023/12/21 10:13:14;;;;;;;0.77;0.35;;;;;;;19.17;50.42;99658.72;5052739;27;98903;-78
2023/12/21 10:15:42;;;;;;;1.27;0.50;;;;;;;19.17;50.73;99645.13;5053972;27;97633;-78
2023/12/21 10:18:09;;;;;;;1.45;0.52;;;;;;;19.19;50.45;99653.94;5040325;27;96946;-78
2023/12/21 10:20:36;;;;;;;1.20;0.50;;;;;;;19.18;50.54;99642.19;5049699;27;98517;-78
2023/12/21 10:23:03;;;;;;;1.45;0.50;;;;;;;19.17;50.61;99626.91;5066575;27;97941;-78
2023/12/21 10:25:30;;;;;;;1.80;0.75;;;;;;;19.17;50.42;99636.94;5065523;27;96871;-78
2023/12/21 10:27:57;;;;;;;2.00;0.65;;;;;;;19.19;50.78;99643.03;5053575;27;96817;-78
2023/12/21 10:30:24;;;;;;;1.23;0.40;;;;;;;19.20;50.74;99609.34;5052567;27;98044;-77
2023/12/21 10:32:57;;;;;;;2.63;0.60;;;;;;;19.20;50.63;99612.06;5071884;27;97025;-78
2023/12/21 10:35:25;;;;;;;1.08;0.40;;;;;;;19.18;50.53;99628.59;5050829;27;96678;-78
2023/12/21 10:37:53;;;;;;;1.85;0.50;;;;;;;19.19;50.62;99605.78;5043974;27;96809;-78
2023/12/21 10:40:22;;;;;;;2.92;0.70;;;;;;;19.19;50.35;99619.38;5053970;27;96718;-78
2023/12/21 10:42:49;;;;;;;0.85;0.50;;;;;;;19.19;50.52;99613.94;5052804;27;96716;-77
2023/12/21 10:45:18;;;;;;;1.67;0.60;;;;;;;19.23;50.51;99625.28;5071332;27;96694;-78
2023/12/21 10:48:11;;;;;;;2.92;0.88;;;;;;;19.23;50.89;99603.50;5049260;27;96761;-76
2023/12/21 10:50:39;;;;;;;1.33;0.60;;;;;;;19.23;50.53;99615.25;5041294;27;98830;-76
2023/12/21 10:53:09;;;;;;;1.75;0.50;;;;;;;19.23;50.70;99608.97;5062344;27;97932;-76
2023/12/21 10:55:37;;;;;;;0.95;0.40;;;;;;;19.25;50.80;99606.88;5045164;27;96954;-77
2023/12/21 10:58:06;;;;;;;0.93;0.52;;;;;;;19.26;50.90;99608.56;5032659;27;96788;-77
2023/12/21 11:00:34;;;;;;;1.20;0.50;;;;;;;19.25;50.76;99618.63;5042587;27;97788;-77
2023/12/21 11:03:02;;;;;;;1.25;0.57;;;;;;;19.25;50.78;99606.88;5049813;27;98702;-77
2023/12/21 11:05:32;;;;;;;1.20;0.60;;;;;;;19.25;50.91;99618.63;5039378;27;96630;-76
2023/12/21 11:08:00;;;;;;;1.08;0.40;;;;;;;19.24;50.94;99595.16;5036844;27;96630;-77
2023/12/21 11:10:32;;;;;;;1.33;0.60;;;;;;;19.25;50.86;99602.28;5056994;27;97721;-77
2023/12/21 11:12:59;;;;;;;2.50;0.80;;;;;;;19.24;50.78;99603.31;5055794;27;97287;-76
2023/12/21 11:15:26;;;;;;;1.20;0.38;;;;;;;19.24;50.84;99610.66;5067377;27;97762;-76
2023/12/21 11:17:54;;;;;;;1.20;0.45;;;;;;;19.25;50.71;99617.78;5046997;27;96721;-76
2023/12/21 11:20:26;;;;;;;0.95;0.43;;;;;;;19.25;50.67;99599.56;5059904;27;96722;-78
2023/12/21 11:23:10;;;;;;;0.80;0.50;;;;;;;19.25;50.76;99599.56;5049421;27;96684;-77
2023/12/21 11:25:37;;;;;;;1.98;0.50;;;;;;;19.25;50.91;99601.44;5038063;27;96926;-77
2023/12/21 11:28:06;;;;;;;1.27;0.52;;;;;;;19.25;50.94;99588.66;5030844;27;97023;-77
2023/12/21 11:30:33;;;;;;;1.85;0.60;;;;;;;19.27;50.60;99586.59;5030978;27;97715;-78